createdAt,value
2022-12-15T00:25:25.505Z,14.20
2022-12-15T00:49:30.747Z,15.70
2022-12-15T01:06:07.526Z,16.00
2022-12-15T01:22:26.877Z,16.20
2022-12-15T01:40:08.404Z,16.30
2022-12-15T01:45:46.250Z,16.70
2022-12-15T01:48:18.836Z,16.40
2022-12-15T01:50:53.413Z,16.40
2022-12-15T01:55:52.572Z,16.40
2022-12-15T01:58:24.209Z,16.40
2022-12-15T02:00:52.181Z,16.40
2022-12-15T02:11:10.777Z,16.50
2022-12-15T02:13:51.100Z,16.50
2022-12-15T02:16:28.838Z,16.50
2022-12-15T02:19:06.015Z,16.50
2022-12-15T02:21:39.259Z,16.50
2022-12-15T02:24:39.860Z,16.50
2022-12-15T02:30:26.351Z,16.00
2022-12-15T02:40:38.372Z,15.50
2022-12-15T03:16:01.462Z,15.20
2022-12-15T03:18:31.405Z,15.40
2022-12-15T03:55:42.505Z,14.70
2022-12-15T04:05:36.890Z,14.60
2022-12-15T04:13:06.624Z,14.60
2022-12-15T04:15:35.434Z,14.40
2022-12-15T04:18:04.613Z,14.40
2022-12-15T04:23:01.914Z,13.90
2022-12-15T04:34:16.915Z,14.30
2022-12-15T05:18:41.629Z,14.70
2022-12-15T05:34:43.417Z,14.40
2022-12-15T05:52:04.602Z,14.90
2022-12-15T05:54:32.801Z,14.90
2022-12-15T06:09:25.165Z,14.90
2022-12-15T06:19:21.934Z,15.00
2022-12-15T06:26:49.675Z,14.90
2022-12-15T06:34:17.667Z,15.10
2022-12-15T06:39:16.399Z,15.10
2022-12-15T06:41:45.442Z,14.90
2022-12-15T06:44:17.571Z,14.90
2022-12-15T06:49:15.608Z,14.80
2022-12-15T06:54:13.614Z,14.60
2022-12-15T07:01:43.015Z,14.80
2022-12-15T07:21:34.171Z,15.00
2022-12-15T07:26:31.697Z,15.10
2022-12-15T07:36:35.092Z,14.80
2022-12-15T07:39:05.012Z,14.80
2022-12-15T07:41:37.126Z,14.70
2022-12-15T07:46:42.170Z,15.00
2022-12-15T08:14:06.894Z,15.30
2022-12-15T08:21:35.023Z,15.30
2022-12-15T08:26:33.055Z,15.40
2022-12-15T08:29:40.379Z,15.50
2022-12-15T08:41:48.977Z,15.80
2022-12-15T08:56:49.317Z,16.70
2022-12-15T09:14:16.988Z,16.80
2022-12-15T09:24:20.579Z,17.10
2022-12-15T09:29:24.219Z,17.40
2022-12-15T09:41:54.684Z,17.60
2022-12-15T09:44:26.827Z,17.80
2022-12-15T09:47:05.910Z,17.90
2022-12-15T09:49:48.657Z,18.50
2022-12-15T09:52:20.615Z,18.20
2022-12-15T09:57:26.434Z,18.60
2022-12-15T10:00:10.106Z,18.70
2022-12-15T10:03:07.844Z,18.90
2022-12-15T10:06:14.705Z,19.00
2022-12-15T10:08:40.888Z,19.50
2022-12-15T10:11:19.920Z,19.70
2022-12-15T10:13:56.044Z,19.80
2022-12-15T10:16:31.873Z,20.20
2022-12-15T10:19:08.310Z,20.60
2022-12-15T10:21:37.365Z,21.00
2022-12-15T10:27:20.022Z,21.70
2022-12-15T10:29:51.844Z,22.00
2022-12-15T10:32:27.680Z,22.10
2022-12-15T10:34:55.961Z,22.30
2022-12-15T10:37:24.479Z,22.40
2022-12-15T10:39:53.048Z,22.60
2022-12-15T10:42:23.306Z,22.80
2022-12-15T10:44:54.094Z,23.00
2022-12-15T10:47:26.114Z,23.10
2022-12-15T10:49:55.507Z,23.30
2022-12-15T10:52:33.415Z,23.60
2022-12-15T10:55:02.037Z,23.70
2022-12-15T10:57:32.204Z,23.80
2022-12-15T11:00:28.795Z,23.80
2022-12-15T11:02:59.491Z,24.00
2022-12-15T11:05:28.198Z,24.20
2022-12-15T11:07:58.005Z,24.50
2022-12-15T11:10:28.440Z,24.60
2022-12-15T11:13:00.338Z,24.80
2022-12-15T11:15:43.407Z,24.80
2022-12-15T11:18:25.468Z,24.80
2022-12-15T11:20:57.434Z,24.90
2022-12-15T11:23:35.952Z,25.10
2022-12-15T11:26:13.761Z,25.20
2022-12-15T11:28:47.118Z,25.50
2022-12-15T11:31:24.202Z,25.60
2022-12-15T11:33:55.002Z,25.70
2022-12-15T11:36:42.411Z,25.90
2022-12-15T11:39:21.873Z,26.10
2022-12-15T11:41:55.914Z,26.20
2022-12-15T11:44:28.488Z,26.30
2022-12-15T11:47:07.189Z,26.40
2022-12-15T11:50:15.849Z,26.50
2022-12-15T11:52:56.958Z,26.60
2022-12-15T11:55:41.191Z,26.70
2022-12-15T11:58:39.280Z,26.80
2022-12-15T12:01:15.136Z,26.70
2022-12-15T12:03:55.404Z,26.90
2022-12-15T12:06:36.060Z,27.10
2022-12-15T12:09:26.170Z,27.20
2022-12-15T12:11:57.787Z,27.30
2022-12-15T12:14:40.521Z,27.40
2022-12-15T12:17:13.819Z,27.40
2022-12-15T12:19:50.804Z,27.40
2022-12-15T12:22:25.375Z,27.40
2022-12-15T12:25:00.869Z,27.50
2022-12-15T12:27:37.429Z,27.40
2022-12-15T12:30:12.602Z,27.40
2022-12-15T12:32:50.563Z,27.30
2022-12-15T12:35:31.898Z,27.20
2022-12-15T12:41:02.671Z,27.20
2022-12-15T12:43:35.532Z,27.20
2022-12-15T12:46:11.287Z,27.20
2022-12-15T12:48:44.768Z,27.20
2022-12-15T12:51:26.391Z,27.10
2022-12-15T12:53:56.863Z,27.20
2022-12-15T12:56:34.620Z,27.10
2022-12-15T12:59:07.923Z,27.20
2022-12-15T13:01:39.460Z,27.90
2022-12-15T13:04:11.891Z,29.10
2022-12-15T13:07:01.088Z,29.60
2022-12-15T13:09:41.800Z,30.20
2022-12-15T13:12:50.905Z,30.30
2022-12-15T13:15:35.225Z,30.00
2022-12-15T13:18:08.526Z,29.50
2022-12-15T13:20:38.247Z,29.50
2022-12-15T13:23:37.668Z,29.80
2022-12-15T13:26:19.227Z,30.20
2022-12-15T13:28:53.788Z,30.90
2022-12-15T13:34:39.722Z,30.30
2022-12-15T13:37:45.449Z,30.10
2022-12-15T13:40:33.153Z,30.10
2022-12-15T13:43:11.663Z,29.50
2022-12-15T13:45:51.185Z,28.80
2022-12-15T13:48:31.621Z,28.00
2022-12-15T13:51:07.012Z,27.20
2022-12-15T13:53:42.227Z,26.70
2022-12-15T13:56:38.347Z,26.30
2022-12-15T13:59:21.431Z,25.90
2022-12-15T14:01:51.582Z,25.60
2022-12-15T14:04:21.434Z,25.40
2022-12-15T14:06:54.131Z,25.10
2022-12-15T14:09:29.453Z,24.90
2022-12-15T14:11:58.566Z,24.70
2022-12-15T14:14:32.577Z,24.60
2022-12-15T14:17:02.605Z,24.30
2022-12-15T14:22:27.505Z,22.50
2022-12-15T14:25:02.259Z,22.50
2022-12-15T14:27:33.025Z,22.60
2022-12-15T14:30:28.340Z,22.60
2022-12-15T14:33:01.975Z,22.60
2022-12-15T14:35:32.813Z,22.60
2022-12-15T14:38:04.927Z,23.80
2022-12-15T14:40:36.785Z,22.50
2022-12-15T14:43:05.947Z,22.40
2022-12-15T14:45:35.585Z,22.40
2022-12-15T14:51:00.821Z,22.20
2022-12-15T14:53:34.828Z,22.20
2022-12-15T14:56:30.340Z,21.90
2022-12-15T14:59:03.950Z,22.10
2022-12-15T15:01:40.196Z,22.20
2022-12-15T15:03:07.444Z,31.00
2022-12-15T15:03:10.217Z,21.40
2022-12-15T15:03:15.650Z,27.20
2022-12-15T15:04:24.518Z,22.00
2022-12-15T15:06:56.131Z,21.90
2022-12-15T15:09:27.168Z,21.90
2022-12-15T15:11:58.577Z,21.80
2022-12-15T15:14:29.740Z,21.70
2022-12-15T15:17:05.818Z,22.00
2022-12-15T15:19:39.624Z,21.60
2022-12-15T15:22:20.179Z,21.50
2022-12-15T15:24:52.730Z,21.50
2022-12-15T15:27:32.818Z,21.70
2022-12-15T15:30:17.557Z,21.50
2022-12-15T15:32:58.294Z,21.10
2022-12-15T15:35:31.384Z,21.20
2022-12-15T15:38:05.098Z,21.20
2022-12-15T15:40:33.230Z,21.00
2022-12-15T15:43:01.498Z,21.00
2022-12-15T15:48:00.684Z,20.90
2022-12-15T15:50:30.564Z,20.90
2022-12-15T15:52:58.644Z,20.90
2022-12-15T15:55:34.865Z,20.80
2022-12-15T15:58:11.982Z,21.20
2022-12-15T16:03:10.184Z,20.70
2022-12-15T16:08:08.628Z,20.60
2022-12-15T16:10:36.794Z,20.60
2022-12-15T16:20:31.986Z,20.40
2022-12-15T16:23:02.921Z,20.40
2022-12-15T16:25:42.528Z,20.40
2022-12-15T16:28:16.697Z,20.40
2022-12-15T16:30:45.999Z,20.30
2022-12-15T16:33:14.870Z,20.20
2022-12-15T16:35:45.400Z,20.20
2022-12-15T16:38:18.304Z,20.20
2022-12-15T16:43:17.449Z,20.10
2022-12-15T16:45:47.337Z,20.10
2022-12-15T16:48:16.349Z,20.10
2022-12-15T16:50:50.715Z,20.10
2022-12-15T16:53:22.816Z,20.00
2022-12-15T16:55:55.557Z,20.00
2022-12-15T17:00:53.825Z,19.90
2022-12-15T17:03:26.126Z,19.90
2022-12-15T17:05:58.092Z,19.90
2022-12-15T17:08:29.113Z,19.80
2022-12-15T17:13:37.708Z,19.80
2022-12-15T17:16:14.492Z,19.80
2022-12-15T17:21:17.261Z,19.70
2022-12-15T17:23:46.378Z,19.60
2022-12-15T17:26:26.187Z,19.60
2022-12-15T17:28:57.406Z,19.50
2022-12-15T17:31:33.204Z,19.70
2022-12-15T17:36:33.543Z,19.50
2022-12-15T17:39:02.908Z,19.50
2022-12-15T17:44:38.834Z,19.50
2022-12-15T17:47:09.316Z,19.40
2022-12-15T17:52:19.793Z,19.30
2022-12-15T18:02:14.580Z,19.30
2022-12-15T18:07:19.233Z,19.20
2022-12-15T18:12:20.525Z,19.20
2022-12-15T18:22:20.416Z,19.10
2022-12-15T18:27:23.575Z,19.00
2022-12-15T18:32:22.539Z,19.00
2022-12-15T18:37:22.966Z,19.10
2022-12-15T18:42:21.780Z,19.10
2022-12-15T18:44:51.463Z,19.00
2022-12-15T18:47:21.237Z,19.00
2022-12-15T18:49:49.793Z,19.20
2022-12-15T18:52:21.573Z,19.00
2022-12-15T18:54:50.831Z,18.90
2022-12-15T18:57:29.316Z,18.90
2022-12-15T18:59:59.905Z,18.90
2022-12-15T19:07:26.623Z,18.80
2022-12-15T19:09:55.621Z,18.70
2022-12-15T19:12:26.893Z,18.80
2022-12-15T19:14:59.456Z,18.50
2022-12-15T19:20:35.728Z,18.70
2022-12-15T19:23:09.776Z,18.90
2022-12-15T19:28:16.113Z,18.60
2022-12-15T19:33:13.911Z,18.50
2022-12-15T19:35:44.683Z,18.20
2022-12-15T19:38:24.936Z,18.50
2022-12-15T19:40:54.546Z,18.50
2022-12-15T19:53:28.218Z,18.40
2022-12-15T19:55:59.272Z,18.50
2022-12-15T19:58:30.615Z,18.50
2022-12-15T20:01:00.881Z,18.20
2022-12-15T20:03:31.330Z,18.20
2022-12-15T20:06:01.962Z,18.10
2022-12-15T20:08:37.080Z,18.10
2022-12-15T20:26:01.781Z,18.10
2022-12-15T20:28:31.365Z,18.10
2022-12-15T20:31:00.622Z,18.10
2022-12-15T20:38:30.515Z,18.10
2022-12-15T20:40:59.777Z,18.10
2022-12-15T20:43:32.543Z,18.20
2022-12-15T20:46:07.017Z,18.20
2022-12-15T20:48:38.258Z,18.30
2022-12-15T20:51:09.798Z,18.30
2022-12-15T20:53:40.657Z,18.30
2022-12-15T20:56:09.331Z,18.40
2022-12-15T20:58:41.667Z,18.30
2022-12-15T21:01:19.930Z,18.20
2022-12-15T21:03:49.066Z,18.20
2022-12-15T21:06:22.712Z,18.10
2022-12-15T21:08:52.568Z,18.20
2022-12-15T21:13:53.698Z,18.10
2022-12-15T21:16:24.159Z,18.00
2022-12-15T21:21:45.870Z,17.90
2022-12-15T21:24:17.734Z,17.90
2022-12-15T21:29:19.081Z,22.20
2022-12-15T21:36:50.675Z,17.50
2022-12-15T21:39:24.653Z,17.50
2022-12-15T21:44:24.741Z,17.30
2022-12-15T21:49:21.659Z,17.30
2022-12-15T21:51:53.440Z,17.30
2022-12-15T21:54:30.722Z,17.20
2022-12-15T21:56:59.728Z,17.00
2022-12-15T21:59:32.634Z,17.00
2022-12-15T22:02:02.386Z,16.90
2022-12-15T22:04:34.785Z,16.80
2022-12-15T22:09:33.363Z,16.80
2022-12-15T22:34:32.629Z,15.90
